createdAt,value
2019-05-25T00:00:11.826Z,14.67
2019-05-25T00:01:11.831Z,14.68
2019-05-25T00:02:11.798Z,14.59
2019-05-25T00:03:12.065Z,14.52
2019-05-25T00:04:11.786Z,14.68
2019-05-25T00:05:11.783Z,14.67
2019-05-25T00:06:11.786Z,14.63
2019-05-25T00:07:11.847Z,14.62
2019-05-25T00:08:11.836Z,14.63
2019-05-25T00:09:11.903Z,14.7
2019-05-25T00:10:11.868Z,14.67
2019-05-25T00:11:11.835Z,14.81
2019-05-25T00:13:16.925Z,14.59
2019-05-25T00:13:28.457Z,14.73
2019-05-25T00:14:27.950Z,14.71
2019-05-25T00:15:27.938Z,14.7
2019-05-25T00:23:22.337Z,14.67
2019-05-25T00:23:33.496Z,14.67
2019-05-25T00:24:33.435Z,14.74
2019-05-25T00:25:33.416Z,14.7
2019-05-25T00:26:33.422Z,14.67
2019-05-25T00:27:33.428Z,14.74
2019-05-25T00:28:33.761Z,14.7
2019-05-25T00:29:33.518Z,14.63
2019-05-25T00:30:33.414Z,14.7
2019-05-25T00:31:33.469Z,14.63
2019-05-25T00:32:33.404Z,14.73
2019-05-25T00:33:33.482Z,14.71
2019-05-25T00:34:33.468Z,14.78
2019-05-25T00:35:33.494Z,14.7
2019-05-25T00:36:33.422Z,14.68
2019-05-25T00:37:33.449Z,14.61
2019-05-25T00:38:33.414Z,14.59
2019-05-25T00:39:33.397Z,14.68
2019-05-25T00:40:33.445Z,14.66
2019-05-25T00:41:33.432Z,14.58
2019-05-25T00:42:33.466Z,14.56
2019-05-25T00:43:33.434Z,14.61
2019-05-25T00:44:33.455Z,14.58
2019-05-25T00:45:33.587Z,14.67
2019-05-25T00:46:33.429Z,14.63
2019-05-25T00:47:33.438Z,14.68
2019-05-25T00:48:33.522Z,14.56
2019-05-25T00:49:33.430Z,14.66
2019-05-25T00:50:33.433Z,14.68
2019-05-25T00:51:33.444Z,14.68
2019-05-25T00:52:33.532Z,14.71
2019-05-25T00:53:33.573Z,14.59
2019-05-25T00:54:33.723Z,14.59
2019-05-25T00:55:33.441Z,14.62
2019-05-25T00:56:33.497Z,14.61
2019-05-25T00:57:33.497Z,14.58
2019-05-25T00:58:33.483Z,14.53
2019-05-25T00:59:33.477Z,14.51
2019-05-25T01:00:33.557Z,14.55
2019-05-25T01:01:33.489Z,14.55
2019-05-25T01:02:33.509Z,14.38
2019-05-25T01:03:33.436Z,14.38
2019-05-25T01:04:33.494Z,14.52
2019-05-25T01:05:33.491Z,14.44
2019-05-25T01:06:33.495Z,14.48
2019-05-25T01:07:33.527Z,14.52
2019-05-25T01:08:33.512Z,14.51
2019-05-25T01:09:33.477Z,14.48
2019-05-25T01:10:33.504Z,14.49
2019-05-25T01:11:33.530Z,14.26
2019-05-25T01:12:33.533Z,14.12
2019-05-25T01:13:33.540Z,14.12
2019-05-25T01:14:33.610Z,14.08
2019-05-25T01:15:33.517Z,14.12
2019-05-25T01:16:33.524Z,14.08
2019-05-25T01:17:33.484Z,14.05
2019-05-25T01:18:33.495Z,14.04
2019-05-25T01:19:33.484Z,14.04
2019-05-25T01:20:33.893Z,14.04
2019-05-25T01:21:33.474Z,14.03
2019-05-25T01:22:33.497Z,14.05
2019-05-25T01:23:33.616Z,14.05
2019-05-25T01:24:49.225Z,14.07
2019-05-25T01:25:33.806Z,14.12
2019-05-25T01:26:33.493Z,14.15
2019-05-25T01:27:33.564Z,14.22
2019-05-25T01:28:33.560Z,14.07
2019-05-25T01:29:33.509Z,14.07
2019-05-25T01:30:33.553Z,14.05
2019-05-25T01:31:33.546Z,13.82
2019-05-25T01:32:33.546Z,13.67
2019-05-25T01:33:33.641Z,13.61
2019-05-25T01:34:33.523Z,13.55
2019-05-25T01:35:33.593Z,13.46
2019-05-25T01:36:33.511Z,13.54
2019-05-25T01:37:33.500Z,13.55
2019-05-25T01:38:33.507Z,13.55
2019-05-25T01:39:33.574Z,13.45
2019-05-25T01:40:33.546Z,13.31
2019-05-25T01:41:33.575Z,13.46
2019-05-25T01:42:33.712Z,13.43
2019-05-25T01:43:33.564Z,13.55
2019-05-25T01:44:33.549Z,13.49
2019-05-25T01:45:33.598Z,13.26
2019-05-25T01:46:33.556Z,13.28
2019-05-25T01:47:34.282Z,13.21
2019-05-25T01:48:33.590Z,13.28
2019-05-25T01:49:33.535Z,13.12
2019-05-25T01:50:33.531Z,13.23
2019-05-25T01:51:33.507Z,13.16
2019-05-25T01:52:33.560Z,13.21
2019-05-25T01:53:37.211Z,13.09
2019-05-25T01:54:33.552Z,13.09
2019-05-25T01:55:33.514Z,13.11
2019-05-25T01:56:33.608Z,13.03
2019-05-25T01:57:33.614Z,13.01
2019-05-25T01:58:33.562Z,13.05
2019-05-25T01:59:33.565Z,13.16
2019-05-25T02:00:33.657Z,13.08
2019-05-25T02:01:33.661Z,13.11
2019-05-25T02:02:33.594Z,13.19
2019-05-25T02:03:33.594Z,13.05
2019-05-25T02:04:33.580Z,12.94
2019-05-25T02:05:33.588Z,12.98
2019-05-25T02:06:33.693Z,13.06
2019-05-25T02:07:33.575Z,12.93
2019-05-25T02:08:33.587Z,13.02
2019-05-25T02:09:33.577Z,13.08
2019-05-25T02:10:33.959Z,13.02
2019-05-25T02:11:33.551Z,12.95
2019-05-25T02:12:33.593Z,12.94
2019-05-25T02:13:33.580Z,12.99
2019-05-25T02:18:50.425Z,12.99
2019-05-25T02:19:01.464Z,12.8
2019-05-25T02:20:01.474Z,12.81
2019-05-25T02:21:01.412Z,12.93
2019-05-25T02:22:01.400Z,12.86
2019-05-25T02:23:01.534Z,12.78
2019-05-25T02:24:01.586Z,12.8
2019-05-25T02:25:19.185Z,12.76
2019-05-25T02:26:01.474Z,12.7
2019-05-25T02:27:01.426Z,12.7
2019-05-25T02:28:01.404Z,12.81
2019-05-25T02:29:01.430Z,12.9
2019-05-25T02:30:01.439Z,13.02
2019-05-25T02:31:01.422Z,12.95
2019-05-25T02:32:01.430Z,13.08
2019-05-25T02:33:01.493Z,13.01
2019-05-25T02:34:01.485Z,13.08
2019-05-25T02:35:01.549Z,12.93
2019-05-25T02:36:01.413Z,12.94
2019-05-25T02:37:01.403Z,13.02
2019-05-25T02:38:01.391Z,12.94
2019-05-25T02:39:01.458Z,12.95
2019-05-25T02:40:01.439Z,12.86
2019-05-25T02:41:01.465Z,13.08
2019-05-25T02:42:01.722Z,13.13
2019-05-25T02:43:01.536Z,13.2
2019-05-25T02:44:01.488Z,13.17
2019-05-25T02:45:01.410Z,13.21
2019-05-25T02:46:01.414Z,13.03
2019-05-25T02:47:01.464Z,13.01
2019-05-25T02:48:01.451Z,13.13
2019-05-25T02:49:01.520Z,13.24
2019-05-25T02:50:01.429Z,13.2
2019-05-25T02:51:01.428Z,13.2
2019-05-25T02:52:01.545Z,13.3
2019-05-25T02:53:01.470Z,13.28
2019-05-25T02:54:01.440Z,13.28
2019-05-25T02:55:01.720Z,13.33
2019-05-25T02:56:01.444Z,13.3
2019-05-25T02:57:01.496Z,13.27
2019-05-25T02:59:20.301Z,13.23
2019-05-25T03:00:19.944Z,13.21
2019-05-25T03:01:19.943Z,13.19
2019-05-25T03:02:19.913Z,13.09
2019-05-25T03:03:19.999Z,13.05
2019-05-25T03:04:19.920Z,13.11
2019-05-25T03:05:19.916Z,13.2
2019-05-25T03:06:19.997Z,13.13
2019-05-25T03:07:19.925Z,13.06
2019-05-25T03:08:19.968Z,13.17
2019-05-25T03:09:19.934Z,13.19
2019-05-25T03:10:19.920Z,13.06
2019-05-25T03:11:19.948Z,13.05
2019-05-25T03:12:19.920Z,13.17
2019-05-25T03:13:19.966Z,13.03
2019-05-25T03:14:19.930Z,13.19
2019-05-25T03:15:19.960Z,13.09
2019-05-25T03:16:19.964Z,13.13
2019-05-25T03:17:20.045Z,13.2
2019-05-25T03:18:19.931Z,13.17
2019-05-25T03:19:19.962Z,13.19
2019-05-25T03:20:19.945Z,13.19
2019-05-25T03:21:19.957Z,13.21
2019-05-25T03:22:19.920Z,13.13
2019-05-25T03:23:19.992Z,12.94
2019-05-25T03:24:19.955Z,12.87
2019-05-25T03:25:19.959Z,12.86
2019-05-25T03:26:19.983Z,12.75
2019-05-25T03:27:19.992Z,12.8
2019-05-25T03:28:19.960Z,12.7
2019-05-25T03:29:20.004Z,12.65
2019-05-25T03:30:20.139Z,12.72
2019-05-25T03:31:19.982Z,12.68
2019-05-25T03:32:20.004Z,12.83
2019-05-25T03:33:19.972Z,12.72
2019-05-25T03:34:20.018Z,12.68
2019-05-25T03:35:19.964Z,12.7
2019-05-25T03:36:19.989Z,12.62
2019-05-25T03:37:20.146Z,12.78
2019-05-25T03:38:19.986Z,12.8
2019-05-25T03:39:19.990Z,12.68
2019-05-25T03:40:19.958Z,12.65
2019-05-25T03:41:20.008Z,12.57
2019-05-25T03:42:19.989Z,12.66
2019-05-25T03:43:20.001Z,12.68
2019-05-25T03:44:20.828Z,12.63
2019-05-25T03:45:20.017Z,12.68
2019-05-25T03:46:20.758Z,12.54
2019-05-25T03:47:20.021Z,12.63
2019-05-25T03:48:20.025Z,12.66
2019-05-25T03:49:20.013Z,12.78
2019-05-25T03:50:20.008Z,12.73
2019-05-25T03:51:20.052Z,12.88
2019-05-25T03:52:20.008Z,12.93
2019-05-25T03:53:20.046Z,12.73
2019-05-25T03:54:19.996Z,12.78
2019-05-25T03:55:20.052Z,12.72
2019-05-25T03:56:20.053Z,12.57
2019-05-25T03:57:20.019Z,12.65
2019-05-25T03:58:20.004Z,12.55
2019-05-25T03:59:20.194Z,12.57
2019-05-25T04:00:20.062Z,12.58
2019-05-25T04:01:20.024Z,12.45
2019-05-25T04:02:20.157Z,12.72
2019-05-25T04:03:20.066Z,12.84
2019-05-25T04:04:20.046Z,12.78
2019-05-25T04:05:20.066Z,12.88
2019-05-25T04:06:20.041Z,12.9
2019-05-25T04:07:20.047Z,13.03
2019-05-25T04:08:20.132Z,13.05
2019-05-25T04:09:20.003Z,12.98
2019-05-25T04:10:20.047Z,13.11
2019-05-25T04:11:20.031Z,13.11
2019-05-25T04:12:20.042Z,13.09
2019-05-25T04:13:20.018Z,13.16
2019-05-25T04:14:20.071Z,13.08
2019-05-25T04:15:20.056Z,13.12
2019-05-25T04:16:20.038Z,13.17
2019-05-25T04:17:20.087Z,13.3
2019-05-25T04:18:20.054Z,13.3
2019-05-25T04:19:20.046Z,13.31
2019-05-25T04:20:20.067Z,13.31
2019-05-25T04:21:20.054Z,13.39
2019-05-25T04:22:20.017Z,13.4
2019-05-25T04:23:20.395Z,13.31
2019-05-25T04:24:20.062Z,13.37
2019-05-25T04:25:20.128Z,13.31
2019-05-25T04:26:30.337Z,13.49
2019-05-25T04:27:20.123Z,13.4
2019-05-25T04:28:20.048Z,13.49
2019-05-25T04:29:20.093Z,13.49
2019-05-25T04:30:20.057Z,13.54
2019-05-25T04:31:20.114Z,13.58
2019-05-25T04:32:20.081Z,13.55
2019-05-25T04:33:20.085Z,13.61
2019-05-25T04:34:20.064Z,13.7
2019-05-25T04:35:20.096Z,13.64
2019-05-25T04:36:20.089Z,13.6
2019-05-25T04:37:23.743Z,13.61
2019-05-25T04:38:24.000Z,13.75
2019-05-25T04:39:23.913Z,13.83
2019-05-25T04:40:22.831Z,13.78
2019-05-25T04:41:20.140Z,13.73
2019-05-25T04:42:20.141Z,13.8
2019-05-25T04:43:20.085Z,13.8
2019-05-25T04:44:20.088Z,13.8
2019-05-25T04:45:20.122Z,13.89
2019-05-25T04:46:21.592Z,13.94
2019-05-25T04:47:32.545Z,13.89
2019-05-25T04:48:20.084Z,13.93
2019-05-25T04:49:20.172Z,13.91
2019-05-25T04:50:20.067Z,14.03
2019-05-25T04:53:27.686Z,14.05
2019-05-25T04:54:38.715Z,14.07
2019-05-25T04:55:38.662Z,14.16
2019-05-25T04:56:44.735Z,14.16
2019-05-25T04:57:38.676Z,14.12
2019-05-25T04:58:38.681Z,14.23
2019-05-25T04:59:38.647Z,14.22
2019-05-25T05:00:38.738Z,14.38
2019-05-25T05:01:38.744Z,14.23
2019-05-25T05:02:38.690Z,14.38
2019-05-25T05:03:38.703Z,14.41
2019-05-25T05:04:38.696Z,14.41
2019-05-25T05:05:38.707Z,14.4
2019-05-25T05:06:38.772Z,14.41
2019-05-25T05:07:38.699Z,14.44
2019-05-25T05:08:40.937Z,14.49
2019-05-25T05:13:55.115Z,14.67
2019-05-25T05:14:06.141Z,14.81
2019-05-25T05:15:06.155Z,14.81
2019-05-25T05:16:06.089Z,14.78
2019-05-25T05:17:06.180Z,14.94
2019-05-25T05:18:06.128Z,14.74
2019-05-25T05:19:06.160Z,14.79
2019-05-25T05:20:06.177Z,14.86
2019-05-25T05:21:06.123Z,14.93
2019-05-25T05:22:08.569Z,14.96
2019-05-25T05:23:06.114Z,14.89
2019-05-25T05:24:06.259Z,14.94
2019-05-25T05:25:06.128Z,14.92
2019-05-25T05:26:06.193Z,14.9
2019-05-25T05:27:06.124Z,15
2019-05-25T05:28:06.102Z,14.99
2019-05-25T05:29:06.193Z,15.05
2019-05-25T05:30:06.198Z,14.99
2019-05-25T05:31:20.935Z,15.15
2019-05-25T05:32:06.151Z,15.19
2019-05-25T05:33:06.134Z,15.11
2019-05-25T05:34:06.165Z,15.17
2019-05-25T05:35:06.293Z,15.15
2019-05-25T05:36:06.198Z,15.29
2019-05-25T05:37:06.163Z,15.17
2019-05-25T05:38:06.156Z,15.26
2019-05-25T05:39:06.184Z,15.37
2019-05-25T05:40:06.139Z,15.41
2019-05-25T05:41:06.153Z,15.48
2019-05-25T05:42:06.173Z,15.5
2019-05-25T05:43:06.161Z,15.57
2019-05-25T05:44:06.192Z,15.44
2019-05-25T05:45:06.359Z,15.55
2019-05-25T05:46:06.181Z,15.59
2019-05-25T05:47:06.188Z,15.6
2019-05-25T05:48:06.176Z,15.63
2019-05-25T05:49:06.596Z,15.72
2019-05-25T05:50:06.188Z,15.7
2019-05-25T05:51:06.179Z,15.81
2019-05-25T05:52:06.182Z,15.81
2019-05-25T05:53:06.210Z,15.81
2019-05-25T05:54:06.625Z,15.91
2019-05-25T05:55:06.356Z,15.92
2019-05-25T05:56:06.180Z,15.94
2019-05-25T05:57:17.633Z,16.21
2019-05-25T05:58:06.177Z,16.21
2019-05-25T05:59:06.185Z,16.26
2019-05-25T06:00:06.194Z,16.25
2019-05-25T06:01:07.175Z,16.31
2019-05-25T06:02:06.259Z,16.47
2019-05-25T06:03:06.430Z,16.5
2019-05-25T06:04:06.169Z,16.47
2019-05-25T06:05:06.425Z,16.55
2019-05-25T06:06:06.269Z,16.73
2019-05-25T06:07:06.195Z,16.65
2019-05-25T06:08:06.195Z,16.68
2019-05-25T06:09:06.398Z,16.74
2019-05-25T06:10:06.193Z,16.74
2019-05-25T06:11:06.215Z,16.79
2019-05-25T06:12:06.248Z,16.92
2019-05-25T06:13:06.176Z,16.92
2019-05-25T06:14:06.184Z,17.01
2019-05-25T06:15:06.244Z,17.01
2019-05-25T06:16:06.440Z,17.12
2019-05-25T06:17:06.198Z,16.99
2019-05-25T06:18:09.435Z,17.09
2019-05-25T06:19:06.211Z,17.09
2019-05-25T06:20:06.199Z,17.16
2019-05-25T06:21:06.610Z,17.01
2019-05-25T06:22:06.314Z,17.22
2019-05-25T06:23:12.426Z,17.17
2019-05-25T06:24:06.577Z,17.2
2019-05-25T06:25:06.380Z,17.22
2019-05-25T06:26:06.298Z,17.42
2019-05-25T06:27:06.239Z,17.49
2019-05-25T06:28:06.230Z,17.5
2019-05-25T06:29:06.418Z,17.69
2019-05-25T06:30:06.219Z,17.78
2019-05-25T06:31:06.350Z,17.91
2019-05-25T06:32:06.275Z,18.24
2019-05-25T06:33:06.325Z,18.31
2019-05-25T06:34:06.328Z,18.55
2019-05-25T06:35:06.274Z,18.64
2019-05-25T06:36:06.297Z,18.76
2019-05-25T06:37:06.249Z,18.85
2019-05-25T06:38:06.256Z,18.91
2019-05-25T06:39:06.265Z,19.09
2019-05-25T06:40:06.265Z,19.29
2019-05-25T06:41:08.509Z,19.29
2019-05-25T06:42:06.302Z,19.37
2019-05-25T06:43:06.264Z,19.72
2019-05-25T06:44:06.324Z,19.71
2019-05-25T06:45:06.298Z,19.85
2019-05-25T06:46:06.264Z,19.72
2019-05-25T06:47:06.307Z,19.35
2019-05-25T06:48:06.273Z,19.64
2019-05-25T06:49:06.287Z,19.3
2019-05-25T06:50:06.390Z,19.34
2019-05-25T06:51:06.275Z,19.45
2019-05-25T06:52:06.284Z,19.7
2019-05-25T06:53:06.306Z,19.59
2019-05-25T06:54:14.951Z,19.78
2019-05-25T06:55:06.365Z,19.92
2019-05-25T06:56:06.290Z,19.82
2019-05-25T06:57:06.319Z,19.75
2019-05-25T06:58:06.525Z,19.63
2019-05-25T06:59:06.316Z,19.94
2019-05-25T07:00:06.334Z,19.99
2019-05-25T07:01:06.383Z,20.07
2019-05-25T07:02:06.413Z,20.3
2019-05-25T07:03:06.283Z,20.17
2019-05-25T07:04:06.301Z,20.08
2019-05-25T07:05:06.308Z,20.11
2019-05-25T07:06:06.314Z,20.77
2019-05-25T07:07:06.324Z,20.96
2019-05-25T07:08:06.589Z,20.83
2019-05-25T07:09:06.275Z,20.98
2019-05-25T07:10:06.556Z,20.71
2019-05-25T07:11:06.411Z,20.78
2019-05-25T07:12:06.315Z,20.73
2019-05-25T07:13:06.279Z,20.96
2019-05-25T07:14:06.331Z,20.93
2019-05-25T07:15:06.292Z,21.05
2019-05-25T07:16:06.282Z,21.14
2019-05-25T07:17:06.370Z,21.15
2019-05-25T07:18:06.288Z,20.78
2019-05-25T07:19:06.356Z,20.88
2019-05-25T07:20:06.387Z,20.49
2019-05-25T07:21:06.414Z,20.48
2019-05-25T07:22:06.528Z,20.68
2019-05-25T07:23:06.367Z,20.55
2019-05-25T07:24:07.477Z,20.89
2019-05-25T07:25:06.359Z,20.77
2019-05-25T07:26:06.315Z,20.74
2019-05-25T07:27:06.366Z,20.66
2019-05-25T07:28:06.381Z,20.89
2019-05-25T07:29:06.361Z,20.77
2019-05-25T07:30:06.397Z,20.78
2019-05-25T07:31:06.330Z,20.92
2019-05-25T07:32:06.343Z,20.98
2019-05-25T07:33:06.429Z,20.7
2019-05-25T07:34:06.335Z,21.01
2019-05-25T07:35:06.313Z,20.95
2019-05-25T07:36:10.725Z,20.55
2019-05-25T07:37:06.352Z,20.21
2019-05-25T07:38:06.548Z,20.53
2019-05-25T07:39:06.506Z,20.8
2019-05-25T07:40:06.357Z,20.89
2019-05-25T07:41:06.379Z,21.04
2019-05-25T07:42:06.629Z,21.13
2019-05-25T07:43:06.347Z,21.11
2019-05-25T07:44:06.414Z,21.13
2019-05-25T07:45:06.464Z,21.19
2019-05-25T07:46:06.437Z,21.15
2019-05-25T07:47:06.401Z,21.08
2019-05-25T07:48:06.344Z,20.93
2019-05-25T07:49:06.366Z,20.96
2019-05-25T07:50:06.394Z,20.88
2019-05-25T07:51:07.139Z,20.9
2019-05-25T07:52:08.114Z,20.95
2019-05-25T07:53:06.355Z,20.93
2019-05-25T07:54:16.405Z,20.73
2019-05-25T07:55:06.520Z,20.85
2019-05-25T07:56:06.401Z,20.8
2019-05-25T07:57:06.430Z,20.85
2019-05-25T07:58:22.144Z,20.83
2019-05-25T07:59:06.418Z,20.8
2019-05-25T08:00:06.446Z,20.82
2019-05-25T08:01:06.398Z,21
2019-05-25T08:02:06.380Z,21.1
2019-05-25T08:03:06.401Z,20.9
2019-05-25T08:04:06.456Z,20.89
2019-05-25T08:05:06.482Z,21.04
2019-05-25T08:06:06.493Z,20.9
2019-05-25T08:07:06.407Z,20.83
2019-05-25T08:08:07.877Z,20.77
2019-05-25T08:09:06.424Z,20.95
2019-05-25T08:10:06.494Z,20.83
2019-05-25T08:11:06.496Z,20.95
2019-05-25T08:12:06.449Z,20.89
2019-05-25T08:13:06.453Z,21
2019-05-25T08:14:06.464Z,20.9
2019-05-25T08:15:06.425Z,20.98
2019-05-25T08:16:06.459Z,21.11
2019-05-25T08:17:06.580Z,21.13
2019-05-25T08:18:06.487Z,21.15
2019-05-25T08:19:06.392Z,21
2019-05-25T08:20:06.487Z,21.01
2019-05-25T08:21:06.712Z,21.17
2019-05-25T08:22:06.495Z,21.29
2019-05-25T08:23:06.435Z,21.29
2019-05-25T08:24:15.755Z,21.38
2019-05-25T08:25:06.453Z,21.47
2019-05-25T08:26:06.461Z,21.48
2019-05-25T08:27:06.466Z,21.38
2019-05-25T08:28:06.467Z,21.48
2019-05-25T08:29:06.454Z,21.62
2019-05-25T08:30:06.809Z,21.56
2019-05-25T08:31:06.939Z,21.26
2019-05-25T08:32:06.435Z,21.15
2019-05-25T08:33:06.485Z,21.37
2019-05-25T08:34:06.487Z,21.4
2019-05-25T08:35:06.514Z,21.38
2019-05-25T08:36:06.465Z,20.95
2019-05-25T08:37:06.467Z,21.2
2019-05-25T08:38:06.471Z,21.26
2019-05-25T08:39:06.519Z,21.41
2019-05-25T08:40:06.464Z,21.56
2019-05-25T08:41:06.477Z,21.45
2019-05-25T08:42:07.176Z,21.56
2019-05-25T08:43:06.611Z,21.74
2019-05-25T08:44:09.728Z,21.74
2019-05-25T08:45:06.621Z,21.84
2019-05-25T08:46:06.482Z,21.91
2019-05-25T08:47:06.450Z,22.15
2019-05-25T08:48:06.497Z,22.4
2019-05-25T08:49:06.483Z,22.7
2019-05-25T08:50:06.615Z,22.86
2019-05-25T08:51:06.524Z,22.76
2019-05-25T08:52:09.445Z,23.01
2019-05-25T08:53:06.530Z,22.63
2019-05-25T08:54:19.511Z,23.23
2019-05-25T08:55:06.850Z,23.33
2019-05-25T08:56:06.520Z,23.59
2019-05-25T08:57:06.526Z,23.74
2019-05-25T08:58:06.512Z,23.86
2019-05-25T08:59:06.711Z,24.01
2019-05-25T09:00:06.472Z,24.1
2019-05-25T09:01:06.500Z,24.25
2019-05-25T09:02:06.564Z,23.88
2019-05-25T09:03:06.508Z,23.81
2019-05-25T09:04:06.571Z,24.04
2019-05-25T09:05:06.541Z,24.25
2019-05-25T09:06:06.503Z,24.5
2019-05-25T09:07:06.513Z,23.82
2019-05-25T09:08:06.495Z,24.34
2019-05-25T09:09:06.506Z,24.4
2019-05-25T09:10:06.513Z,24.4
2019-05-25T09:11:06.598Z,24.77
2019-05-25T09:12:07.715Z,24.14
2019-05-25T09:13:06.488Z,24.4
2019-05-25T09:14:06.494Z,24.46
2019-05-25T09:15:08.653Z,24.85
2019-05-25T09:16:06.531Z,24.94
2019-05-25T09:17:06.514Z,25.09
2019-05-25T09:18:06.640Z,25.03
2019-05-25T09:19:06.488Z,25.04
2019-05-25T09:20:06.565Z,25.06
2019-05-25T09:21:06.506Z,24.59
2019-05-25T09:22:08.989Z,24.26
2019-05-25T09:23:06.599Z,24.41
2019-05-25T09:24:18.608Z,24.99
2019-05-25T09:25:06.587Z,25.14
2019-05-25T09:26:06.537Z,25.3
2019-05-25T09:27:06.609Z,25.46
2019-05-25T09:28:06.532Z,25.55
2019-05-25T09:29:10.025Z,25.83
2019-05-25T09:30:06.527Z,25.12
2019-05-25T09:31:06.571Z,25.51
2019-05-25T09:32:09.694Z,25.83
2019-05-25T09:33:06.624Z,25.56
2019-05-25T09:34:06.587Z,25.83
2019-05-25T09:35:06.560Z,25.63
2019-05-25T09:36:06.568Z,25.88
2019-05-25T09:37:06.564Z,25.18
2019-05-25T09:38:06.672Z,25.58
2019-05-25T09:39:06.639Z,25.29
2019-05-25T09:40:06.543Z,25.34
2019-05-25T09:41:06.554Z,25.15
2019-05-25T09:42:06.929Z,25.7
2019-05-25T09:43:06.584Z,25.76
2019-05-25T09:44:06.549Z,25.89
2019-05-25T09:45:06.586Z,25.78
2019-05-25T09:46:08.591Z,25.95
2019-05-25T09:47:06.594Z,25.96
2019-05-25T09:48:06.602Z,26.42
2019-05-25T09:49:06.606Z,26.52
2019-05-25T09:50:06.921Z,26.27
2019-05-25T09:51:15.138Z,26.24
2019-05-25T09:52:06.587Z,26.52
2019-05-25T09:53:06.595Z,26.78
2019-05-25T09:54:06.643Z,26.7
2019-05-25T09:55:06.774Z,26.74
2019-05-25T09:56:06.673Z,26.44
2019-05-25T09:57:06.784Z,26.29
2019-05-25T09:58:06.613Z,26.03
2019-05-25T09:59:22.076Z,25.78
2019-05-25T10:00:06.639Z,26.11
2019-05-25T10:01:06.625Z,25.76
2019-05-25T10:02:06.618Z,26.49
2019-05-25T10:03:06.666Z,26.74
2019-05-25T10:04:06.582Z,26.71
2019-05-25T10:05:06.631Z,26.3
2019-05-25T10:06:17.353Z,26.71
2019-05-25T10:07:06.645Z,26.76
2019-05-25T10:08:06.632Z,26.27
2019-05-25T10:09:06.965Z,26.26
2019-05-25T10:10:06.645Z,26.48
2019-05-25T10:11:06.609Z,26.27
2019-05-25T10:12:06.644Z,26.48
2019-05-25T10:13:06.601Z,26.82
2019-05-25T10:14:06.697Z,27
2019-05-25T10:15:06.662Z,26.78
2019-05-25T10:16:06.739Z,25.71
2019-05-25T10:17:06.609Z,26.61
2019-05-25T10:18:06.716Z,26.68
2019-05-25T10:19:06.662Z,26.85
2019-05-25T10:20:06.669Z,26.97
2019-05-25T10:21:06.730Z,26.3
2019-05-25T10:22:06.690Z,25.91
2019-05-25T10:23:06.691Z,25.74
2019-05-25T10:24:06.695Z,25.85
2019-05-25T10:25:06.910Z,25.76
2019-05-25T10:26:06.830Z,25.96
2019-05-25T10:27:06.904Z,26.04
2019-05-25T10:28:06.924Z,26.29
2019-05-25T10:29:06.894Z,26.26
2019-05-25T10:30:06.937Z,25.78
2019-05-25T10:31:06.904Z,26.23
2019-05-25T10:32:06.848Z,26.27
2019-05-25T10:33:06.956Z,26.19
2019-05-25T10:34:07.178Z,26.34
2019-05-25T10:35:06.928Z,26.3
2019-05-25T10:36:06.836Z,26.81
2019-05-25T10:37:06.882Z,27.04
2019-05-25T10:38:06.930Z,26.76
2019-05-25T10:39:06.861Z,27.05
2019-05-25T10:40:06.840Z,26.63
2019-05-25T10:41:06.736Z,26.59
2019-05-25T10:42:06.732Z,26.86
2019-05-25T10:43:06.823Z,27.11
2019-05-25T10:44:06.807Z,27
2019-05-25T10:45:07.042Z,26.73
2019-05-25T10:46:06.780Z,26.88
2019-05-25T10:47:07.134Z,26.68
2019-05-25T10:48:06.779Z,26.56
2019-05-25T10:49:07.130Z,26.31
2019-05-25T10:50:06.869Z,26.76
2019-05-25T10:51:06.902Z,26.55
2019-05-25T10:52:06.866Z,26.13
2019-05-25T10:53:06.794Z,25.96
2019-05-25T10:54:06.698Z,26.23
2019-05-25T10:55:06.955Z,26.48
2019-05-25T10:56:06.753Z,26.83
2019-05-25T10:57:06.746Z,26.96
2019-05-25T10:59:25.312Z,27.15
2019-05-25T11:00:25.424Z,26.52
2019-05-25T11:01:25.479Z,26.78
2019-05-25T11:02:25.334Z,26.88
2019-05-25T11:03:25.405Z,26.39
2019-05-25T11:04:25.310Z,26.7
2019-05-25T11:05:25.513Z,26.55
2019-05-25T11:06:25.349Z,26.79
2019-05-25T11:07:25.344Z,26.97
2019-05-25T11:08:25.369Z,26.41
2019-05-25T11:09:25.382Z,26.45
2019-05-25T11:10:25.347Z,25.91
2019-05-25T11:11:25.306Z,26.76
2019-05-25T11:12:28.717Z,26.63
2019-05-25T11:13:25.348Z,26.59
2019-05-25T11:14:25.328Z,26.42
2019-05-25T11:15:25.312Z,26.59
2019-05-25T11:16:25.329Z,26.33
2019-05-25T11:17:25.477Z,26.78
2019-05-25T11:18:25.380Z,26.91
2019-05-25T11:19:27.108Z,26.76
2019-05-25T11:20:25.346Z,26.81
2019-05-25T11:21:25.296Z,26.79
2019-05-25T11:22:25.313Z,27.03
2019-05-25T11:23:25.329Z,26.86
2019-05-25T11:24:34.836Z,27.03
2019-05-25T11:25:25.342Z,27.22
2019-05-25T11:26:25.348Z,27.18
2019-05-25T11:27:25.315Z,27.25
2019-05-25T11:28:25.561Z,27.29
2019-05-25T11:29:25.431Z,27.25
2019-05-25T11:30:25.346Z,26.64
2019-05-25T11:31:25.353Z,26.55
2019-05-25T11:32:25.338Z,26.88
2019-05-25T11:33:25.329Z,26.76
2019-05-25T11:34:25.372Z,26.89
2019-05-25T11:35:25.461Z,26.78
2019-05-25T11:36:25.350Z,26.53
2019-05-25T11:37:25.360Z,26.59
2019-05-25T11:38:25.575Z,26.89
2019-05-25T11:39:25.354Z,27.04
2019-05-25T11:40:25.330Z,26.91
2019-05-25T11:41:25.369Z,26.48
2019-05-25T11:42:25.366Z,26.64
2019-05-25T11:43:25.370Z,26.51
2019-05-25T11:44:25.358Z,26.53
2019-05-25T11:45:25.329Z,26.86
2019-05-25T11:46:25.391Z,26.64
2019-05-25T11:47:25.382Z,26.59
2019-05-25T11:48:25.386Z,26.08
2019-05-25T11:49:28.179Z,26.6
2019-05-25T11:50:25.380Z,26.81
2019-05-25T11:51:25.369Z,26.56
2019-05-25T11:52:25.375Z,26.26
2019-05-25T11:53:25.377Z,26.49
2019-05-25T11:54:36.554Z,26.26
2019-05-25T11:55:25.406Z,26.16
2019-05-25T11:56:25.485Z,26.26
2019-05-25T11:57:25.387Z,25.86
2019-05-25T11:58:25.422Z,26.19
2019-05-25T11:59:25.345Z,26.53
2019-05-25T12:00:30.901Z,26.97
2019-05-25T12:01:25.441Z,27.03
2019-05-25T12:02:25.460Z,27.18
2019-05-25T12:03:25.431Z,27.28
2019-05-25T12:04:25.823Z,27.23
2019-05-25T12:05:25.460Z,26.39
2019-05-25T12:06:25.476Z,26.53
2019-05-25T12:07:25.474Z,26.85
2019-05-25T12:08:25.478Z,26.78
2019-05-25T12:09:25.436Z,26.88
2019-05-25T12:10:25.479Z,26.45
2019-05-25T12:11:25.992Z,26.59
2019-05-25T12:12:25.447Z,26.86
2019-05-25T12:13:25.566Z,26.97
2019-05-25T12:14:25.404Z,26.83
2019-05-25T12:15:25.476Z,26.56
2019-05-25T12:16:25.416Z,26.76
2019-05-25T12:17:25.422Z,26.86
2019-05-25T12:18:25.547Z,26.76
2019-05-25T12:19:25.456Z,26.91
2019-05-25T12:20:25.748Z,26.6
2019-05-25T12:21:25.431Z,26.74
2019-05-25T12:22:25.431Z,26.98
2019-05-25T12:23:25.401Z,26.86
2019-05-25T12:24:39.689Z,25.44
2019-05-25T12:25:29.174Z,26.18
2019-05-25T12:26:29.769Z,26.55
2019-05-25T12:27:29.544Z,25.95
2019-05-25T12:28:29.990Z,26.33
2019-05-25T12:29:29.748Z,26.31
2019-05-25T12:30:44.209Z,26.29
2019-05-25T12:31:29.176Z,26.59
2019-05-25T12:32:29.349Z,26.73
2019-05-25T12:33:33.401Z,26.76
2019-05-25T12:35:01.143Z,26.92
2019-05-25T12:35:29.615Z,26.89
2019-05-25T12:36:29.429Z,26.73
2019-05-25T12:37:29.432Z,26.78
2019-05-25T12:38:29.492Z,26.96
2019-05-25T12:39:30.720Z,26.93
2019-05-25T12:40:29.880Z,26.85
2019-05-25T12:41:29.590Z,27.18
2019-05-25T12:42:29.227Z,27.2
2019-05-25T12:43:29.227Z,26.93
2019-05-25T12:44:29.193Z,27.01
2019-05-25T12:45:30.570Z,26.93
2019-05-25T12:46:29.842Z,27
2019-05-25T12:47:29.400Z,27.01
2019-05-25T12:48:29.565Z,26.88
2019-05-25T12:49:29.717Z,26.46
2019-05-25T12:50:29.566Z,26.74
2019-05-25T12:51:29.640Z,26.92
2019-05-25T12:52:29.892Z,27.04
2019-05-25T12:53:29.630Z,26.52
2019-05-25T12:55:29.634Z,26.85
2019-05-25T12:56:29.592Z,27.11
2019-05-25T12:57:32.206Z,26.92
2019-05-25T12:58:32.051Z,27.01
2019-05-25T12:59:29.277Z,27.01
2019-05-25T13:00:29.771Z,26.23
2019-05-25T13:01:29.529Z,25.99
2019-05-25T13:02:29.581Z,26.27
2019-05-25T13:03:32.451Z,26.52
2019-05-25T13:04:30.054Z,26.23
2019-05-25T13:05:42.292Z,26.39
2019-05-25T13:06:29.605Z,26.44
2019-05-25T13:07:29.315Z,26.29
2019-05-25T13:08:30.135Z,26.34
2019-05-25T13:09:29.666Z,26.36
2019-05-25T13:10:29.935Z,26.01
2019-05-25T13:11:29.844Z,26.44
2019-05-25T13:12:29.747Z,26.27
2019-05-25T13:13:30.169Z,26.27
2019-05-25T13:14:29.363Z,26.3